createdAt,value
2018-08-27T00:00:09.089Z,5.80
2018-08-27T00:02:37.675Z,6.40
2018-08-27T00:05:06.194Z,6.30
2018-08-27T00:07:35.356Z,5.97
2018-08-27T00:10:03.942Z,5.73
2018-08-27T00:12:32.429Z,5.95
2018-08-27T00:15:00.938Z,5.67
2018-08-27T00:17:29.418Z,6.20
2018-08-27T00:19:58.534Z,5.80
2018-08-27T00:22:27.082Z,5.97
2018-08-27T00:24:55.545Z,6.10
2018-08-27T00:27:24.000Z,5.80
2018-08-27T00:29:52.933Z,6.15
2018-08-27T00:32:21.394Z,6.03
2018-08-27T00:34:49.843Z,5.57
2018-08-27T00:37:18.347Z,6.20
2018-08-27T00:39:46.850Z,5.97
2018-08-27T00:43:08.626Z,5.70
2018-08-27T00:45:37.110Z,5.67
2018-08-27T00:48:05.975Z,6.47
2018-08-27T00:50:34.955Z,6.55
2018-08-27T00:53:03.456Z,6.42
2018-08-27T00:55:31.949Z,6.23
2018-08-27T00:58:00.452Z,6.30
2018-08-27T01:00:28.949Z,6.03
2018-08-27T01:02:57.930Z,6.67
2018-08-27T01:05:26.425Z,5.95
2018-08-27T01:07:54.927Z,6.03
2018-08-27T01:10:23.423Z,6.30
2018-08-27T01:12:52.251Z,7.10
2018-08-27T01:15:20.762Z,6.80
2018-08-27T01:17:49.229Z,6.27
2018-08-27T01:20:18.629Z,6.00
2018-08-27T01:22:47.095Z,6.03
2018-08-27T01:25:17.374Z,6.20
2018-08-27T01:27:45.899Z,6.60
2018-08-27T01:35:08.087Z,6.93
2018-08-27T01:37:36.613Z,7.60
2018-08-27T01:40:05.188Z,7.07
2018-08-27T01:42:33.670Z,6.42
2018-08-27T01:45:02.141Z,7.73
2018-08-27T01:47:30.609Z,6.63
2018-08-27T01:49:59.113Z,7.10
2018-08-27T01:52:27.580Z,7.87
2018-08-27T01:54:56.041Z,6.40
2018-08-27T01:57:24.577Z,7.07
2018-08-27T01:59:53.061Z,7.30
2018-08-27T02:02:21.512Z,7.03
2018-08-27T02:04:50.031Z,6.73
2018-08-27T02:07:18.550Z,6.12
2018-08-27T02:09:47.046Z,6.90
2018-08-27T02:12:17.371Z,6.85
2018-08-27T02:14:45.842Z,7.27
2018-08-27T02:22:13.387Z,6.70
2018-08-27T02:24:41.886Z,7.10
2018-08-27T02:27:10.357Z,7.17
2018-08-27T02:29:38.863Z,7.00
2018-08-27T02:32:07.367Z,5.97
2018-08-27T02:34:35.830Z,6.63
2018-08-27T02:37:04.370Z,6.55
2018-08-27T02:39:32.834Z,6.47
2018-08-27T02:42:01.323Z,6.35
2018-08-27T02:44:31.366Z,7.40
2018-08-27T02:46:59.874Z,6.97
2018-08-27T02:49:28.372Z,6.47
2018-08-27T02:51:56.890Z,6.87
2018-08-27T02:54:25.668Z,7.45
2018-08-27T02:56:54.820Z,7.53
2018-08-27T02:59:23.872Z,6.70
2018-08-27T03:01:52.363Z,7.20
2018-08-27T03:04:20.837Z,7.70
2018-08-27T03:06:50.404Z,7.10
2018-08-27T03:09:18.914Z,7.17
2018-08-27T03:11:47.445Z,7.37
2018-08-27T03:14:17.358Z,6.67
2018-08-27T03:16:45.839Z,7.80
2018-08-27T03:24:09.649Z,7.53
2018-08-27T03:26:38.336Z,6.93
2018-08-27T03:29:06.870Z,6.80
2018-08-27T03:31:35.408Z,7.33
2018-08-27T03:34:04.027Z,7.07
2018-08-27T03:36:32.705Z,7.60
2018-08-27T03:39:01.424Z,6.50
2018-08-27T03:41:29.914Z,6.87
2018-08-27T03:43:58.366Z,6.75
2018-08-27T03:46:27.222Z,7.87
2018-08-27T03:48:55.700Z,7.00
2018-08-27T03:51:24.222Z,7.08
2018-08-27T03:53:52.707Z,6.53
2018-08-27T03:56:21.178Z,6.83
2018-08-27T03:58:49.866Z,7.13
2018-08-27T04:01:18.341Z,7.00
2018-08-27T04:03:47.336Z,6.90
2018-08-27T04:06:17.313Z,6.78
2018-08-27T04:08:46.290Z,6.87
2018-08-27T04:16:08.867Z,7.00
2018-08-27T04:18:38.071Z,6.30
2018-08-27T04:21:06.530Z,7.03
2018-08-27T04:23:35.679Z,6.17
2018-08-27T04:26:04.990Z,6.97
2018-08-27T04:28:35.100Z,9.00
2018-08-27T04:31:06.776Z,7.03
2018-08-27T04:33:35.258Z,6.60
2018-08-27T04:36:03.771Z,7.40
2018-08-27T04:38:32.277Z,7.03
2018-08-27T04:41:01.163Z,6.60
2018-08-27T04:43:29.675Z,7.37
2018-08-27T04:45:58.154Z,7.50
2018-08-27T04:48:26.599Z,6.77
2018-08-27T04:50:55.057Z,6.87
2018-08-27T04:53:23.629Z,6.70
2018-08-27T04:55:53.235Z,6.50
2018-08-27T04:58:23.497Z,6.30
2018-08-27T05:00:51.973Z,6.97
2018-08-27T05:03:20.588Z,6.00
2018-08-27T05:05:49.044Z,6.30
2018-08-27T05:08:17.532Z,7.10
2018-08-27T05:10:47.027Z,6.43
2018-08-27T05:18:09.601Z,7.20
2018-08-27T05:20:38.093Z,6.10
2018-08-27T05:23:06.637Z,6.40
2018-08-27T05:25:35.197Z,6.57
2018-08-27T05:28:04.666Z,6.60
2018-08-27T05:30:33.174Z,6.53
2018-08-27T05:33:02.300Z,6.17
2018-08-27T05:35:30.760Z,6.57
2018-08-27T05:37:59.245Z,5.45
2018-08-27T05:40:28.570Z,5.70
2018-08-27T05:42:57.045Z,5.10
2018-08-27T05:45:25.507Z,5.42
2018-08-27T05:47:54.025Z,4.50
2018-08-27T05:50:22.482Z,5.07
2018-08-27T05:52:50.955Z,4.50
2018-08-27T05:55:19.445Z,4.78
2018-08-27T05:57:47.927Z,4.50
2018-08-27T06:05:09.657Z,4.43
2018-08-27T06:07:38.849Z,4.33
2018-08-27T06:10:08.496Z,4.42
2018-08-27T06:12:37.055Z,5.37
2018-08-27T06:15:08.654Z,4.10
2018-08-27T06:17:37.125Z,4.70
2018-08-27T06:20:05.861Z,4.50
2018-08-27T06:22:34.700Z,4.75
2018-08-27T06:25:03.215Z,4.47
2018-08-27T06:27:32.070Z,4.75
2018-08-27T06:30:01.345Z,4.60
2018-08-27T06:32:29.847Z,4.60
2018-08-27T06:34:58.363Z,3.93
2018-08-27T06:37:26.894Z,3.65
2018-08-27T06:39:55.370Z,4.12
2018-08-27T06:42:24.038Z,3.80
2018-08-27T06:44:52.486Z,3.40
2018-08-27T06:47:20.983Z,2.90
2018-08-27T06:49:49.552Z,2.93
2018-08-27T06:52:18.055Z,3.10
2018-08-27T06:54:46.509Z,2.80
2018-08-27T07:02:12.398Z,2.57
2018-08-27T07:04:43.198Z,3.07
2018-08-27T07:07:11.699Z,2.73
2018-08-27T07:09:40.723Z,2.50
2018-08-27T07:12:09.271Z,2.43
2018-08-27T07:14:37.781Z,2.40
2018-08-27T07:17:06.574Z,2.60
2018-08-27T07:19:36.312Z,2.30
2018-08-27T07:22:04.818Z,2.90
2018-08-27T07:24:33.334Z,2.33
2018-08-27T07:27:01.894Z,2.23
2018-08-27T07:29:30.859Z,2.42
2018-08-27T07:32:00.390Z,2.00
2018-08-27T07:34:28.866Z,2.30
2018-08-27T07:36:57.401Z,2.40
2018-08-27T07:39:25.992Z,2.10
2018-08-27T07:41:54.480Z,2.42
2018-08-27T07:44:22.959Z,1.90
2018-08-27T07:46:52.039Z,3.45
2018-08-27T07:49:20.542Z,2.08
2018-08-27T07:51:49.009Z,1.90
2018-08-27T07:54:17.825Z,2.00
2018-08-27T07:56:46.679Z,1.73
2018-08-27T08:04:13.375Z,2.03
2018-08-27T08:06:41.912Z,2.00
2018-08-27T08:09:11.254Z,2.03
2018-08-27T08:11:40.939Z,2.60
2018-08-27T08:14:09.526Z,1.75
2018-08-27T08:16:38.061Z,2.50
2018-08-27T08:19:06.829Z,2.57
2018-08-27T08:21:36.025Z,1.80
2018-08-27T08:24:04.667Z,1.67
2018-08-27T08:26:33.210Z,2.20
2018-08-27T08:29:01.737Z,1.90
2018-08-27T08:31:30.211Z,1.67
2018-08-27T08:33:59.313Z,1.53
2018-08-27T08:36:27.798Z,1.62
2018-08-27T08:38:57.067Z,1.80
2018-08-27T08:41:25.558Z,1.50
2018-08-27T08:43:54.011Z,1.60
2018-08-27T08:46:23.312Z,1.60
2018-08-27T08:48:51.786Z,1.50
2018-08-27T08:51:20.283Z,1.60
2018-08-27T08:53:49.334Z,1.50
2018-08-27T08:56:18.410Z,1.50
2018-08-27T08:58:46.867Z,1.47
2018-08-27T09:06:09.541Z,1.63
2018-08-27T09:08:41.514Z,1.60
2018-08-27T09:11:10.047Z,1.77
2018-08-27T09:13:38.536Z,1.60
2018-08-27T09:16:07.410Z,1.53
2018-08-27T09:18:36.406Z,1.70
2018-08-27T09:21:05.276Z,1.43
2018-08-27T09:23:34.364Z,1.57
2018-08-27T09:26:05.980Z,1.47
2018-08-27T09:28:34.491Z,1.77
2018-08-27T09:31:02.973Z,1.60
2018-08-27T09:33:33.501Z,1.30
2018-08-27T09:36:02.581Z,1.30
2018-08-27T09:38:31.126Z,1.50
2018-08-27T09:40:59.993Z,1.40
2018-08-27T09:43:30.940Z,1.30
2018-08-27T09:45:59.467Z,1.40
2018-08-27T09:48:29.556Z,1.37
2018-08-27T09:50:58.021Z,1.33
2018-08-27T09:53:27.999Z,1.10
2018-08-27T09:55:56.591Z,1.30
2018-08-27T09:58:27.890Z,1.50
2018-08-27T10:01:02.277Z,1.23
2018-08-27T10:03:31.445Z,1.40
2018-08-27T10:06:00.034Z,1.67
2018-08-27T10:08:28.540Z,1.53
2018-08-27T10:10:57.018Z,1.20
2018-08-27T10:13:25.739Z,1.50
2018-08-27T10:15:54.532Z,1.53
2018-08-27T10:18:25.095Z,1.60
2018-08-27T10:20:53.607Z,1.80
2018-08-27T10:23:22.519Z,1.50
2018-08-27T10:25:51.360Z,1.70
2018-08-27T10:28:20.656Z,1.90
2018-08-27T10:30:49.215Z,2.00
2018-08-27T10:33:17.678Z,1.80
2018-08-27T10:35:46.169Z,2.20
2018-08-27T10:43:10.775Z,2.37
2018-08-27T10:45:39.258Z,2.30
2018-08-27T10:48:07.717Z,2.20
2018-08-27T10:50:36.204Z,2.43
2018-08-27T10:53:04.684Z,2.43
2018-08-27T10:55:33.156Z,2.62
2018-08-27T10:58:01.659Z,2.33
2018-08-27T11:00:30.103Z,2.40
2018-08-27T11:02:58.616Z,2.23
2018-08-27T11:05:27.609Z,2.67
2018-08-27T11:07:56.069Z,2.20
2018-08-27T11:10:24.929Z,2.57
2018-08-27T11:12:53.418Z,2.57
2018-08-27T11:15:21.934Z,1.87
2018-08-27T11:17:50.447Z,2.20
2018-08-27T11:20:19.047Z,2.10
2018-08-27T11:22:47.528Z,2.63
2018-08-27T11:30:09.807Z,2.47
2018-08-27T11:32:38.779Z,2.27
2018-08-27T11:35:08.527Z,2.67
2018-08-27T11:37:37.387Z,2.60
2018-08-27T11:40:09.062Z,2.30
2018-08-27T11:42:40.825Z,2.40
2018-08-27T11:45:09.576Z,2.60
2018-08-27T11:47:38.483Z,2.33
2018-08-27T11:50:08.035Z,2.37
2018-08-27T11:52:36.578Z,2.50
2018-08-27T11:55:05.373Z,2.70
2018-08-27T11:57:33.880Z,2.83
2018-08-27T12:00:02.529Z,2.70
2018-08-27T12:02:31.823Z,3.20
2018-08-27T12:05:00.380Z,2.50
2018-08-27T12:07:28.912Z,2.33
2018-08-27T12:09:57.602Z,2.33
2018-08-27T12:12:26.642Z,2.12
2018-08-27T12:14:55.560Z,1.90
2018-08-27T12:17:24.003Z,2.65
2018-08-27T12:31:02.234Z,2.20
2018-08-27T12:33:30.683Z,2.70
2018-08-27T12:35:59.457Z,2.00
2018-08-27T12:38:28.026Z,2.83
2018-08-27T12:40:57.152Z,2.70
2018-08-27T12:43:25.674Z,2.85
2018-08-27T12:45:54.225Z,2.50
2018-08-27T12:48:22.721Z,2.63
2018-08-27T12:50:51.328Z,2.87
2018-08-27T12:53:20.091Z,2.73
2018-08-27T12:55:49.014Z,2.47
2018-08-27T12:58:17.986Z,2.60
2018-08-27T13:00:47.533Z,2.50
2018-08-27T13:03:17.431Z,2.55
2018-08-27T13:05:46.121Z,2.23
2018-08-27T13:13:11.913Z,2.43
2018-08-27T13:15:40.393Z,2.35
2018-08-27T13:18:08.899Z,2.00
2018-08-27T13:20:37.671Z,2.10
2018-08-27T13:23:06.163Z,2.27
2018-08-27T13:25:34.750Z,2.10
2018-08-27T13:28:03.223Z,2.33
2018-08-27T13:30:31.786Z,2.37
2018-08-27T13:33:00.264Z,2.10
2018-08-27T13:35:28.801Z,2.07
2018-08-27T13:37:57.311Z,2.60
2018-08-27T13:40:25.792Z,2.40
2018-08-27T13:42:54.623Z,2.30
2018-08-27T13:45:23.058Z,1.90
2018-08-27T13:47:51.520Z,2.50
2018-08-27T13:50:20.034Z,2.60
2018-08-27T13:52:49.286Z,2.20
2018-08-27T13:55:17.794Z,2.53
2018-08-27T13:57:46.855Z,2.67
2018-08-27T14:05:11.076Z,2.77
2018-08-27T14:07:39.531Z,2.43
2018-08-27T14:10:08.074Z,2.43
2018-08-27T14:12:36.593Z,2.40
2018-08-27T14:15:05.799Z,2.30
2018-08-27T14:17:34.194Z,2.12
2018-08-27T14:20:02.921Z,2.23
2018-08-27T14:22:31.304Z,2.60
2018-08-27T14:25:00.361Z,2.37
2018-08-27T14:27:29.119Z,1.93
2018-08-27T14:29:57.919Z,2.23
2018-08-27T14:32:26.386Z,2.22
2018-08-27T14:34:55.120Z,1.80
2018-08-27T14:37:23.631Z,1.90
2018-08-27T14:39:52.357Z,2.20
2018-08-27T14:42:21.560Z,1.80
2018-08-27T14:44:51.239Z,1.93
2018-08-27T14:47:19.741Z,1.83
2018-08-27T14:49:48.241Z,2.10
2018-08-27T14:52:17.342Z,2.20
2018-08-27T14:54:45.845Z,1.90
2018-08-27T15:02:10.634Z,1.90
2018-08-27T15:04:39.119Z,1.97
2018-08-27T15:07:07.630Z,1.80
2018-08-27T15:09:36.178Z,2.00
2018-08-27T15:12:04.677Z,2.10
2018-08-27T15:14:33.210Z,1.87
2018-08-27T15:17:01.814Z,1.95
2018-08-27T15:19:30.240Z,1.70
2018-08-27T15:21:59.102Z,2.00
2018-08-27T15:24:27.846Z,2.03
2018-08-27T15:26:56.298Z,2.02
2018-08-27T15:29:25.131Z,2.10
2018-08-27T15:31:53.622Z,2.10
2018-08-27T15:34:22.873Z,1.67
2018-08-27T15:36:51.446Z,2.20
2018-08-27T15:39:20.496Z,1.70
2018-08-27T15:41:48.972Z,1.90
2018-08-27T15:44:18.719Z,1.77
2018-08-27T15:46:48.485Z,1.87
2018-08-27T15:49:17.527Z,1.77
2018-08-27T15:51:46.351Z,2.20
2018-08-27T15:59:11.054Z,1.90
2018-08-27T16:01:39.741Z,1.90
2018-08-27T16:04:08.293Z,2.00
2018-08-27T16:06:36.842Z,1.97
2018-08-27T16:09:06.418Z,1.90
2018-08-27T16:11:34.910Z,2.00
2018-08-27T16:14:03.442Z,1.97
2018-08-27T16:16:31.969Z,2.05
2018-08-27T16:19:00.457Z,2.17
2018-08-27T16:21:28.985Z,1.98
2018-08-27T16:23:58.365Z,2.63
2018-08-27T16:26:26.834Z,1.90
2018-08-27T16:28:55.502Z,1.77
2018-08-27T16:31:23.966Z,1.55
2018-08-27T16:33:53.214Z,1.90
2018-08-27T16:36:21.722Z,1.90
2018-08-27T16:38:50.250Z,2.20
2018-08-27T16:41:20.190Z,1.60
2018-08-27T16:43:48.711Z,1.93
2018-08-27T16:46:17.387Z,1.50
2018-08-27T16:48:46.148Z,2.07
2018-08-27T16:56:15.486Z,2.00
2018-08-27T16:58:43.962Z,2.27
2018-08-27T17:01:12.714Z,2.00
2018-08-27T17:03:41.276Z,1.90
2018-08-27T17:06:09.770Z,2.13
2018-08-27T17:08:38.254Z,2.27
2018-08-27T17:11:06.783Z,2.00
2018-08-27T17:13:35.261Z,2.30
2018-08-27T17:16:03.791Z,2.17
2018-08-27T17:18:32.742Z,1.90
2018-08-27T17:21:01.601Z,2.07
2018-08-27T17:23:30.535Z,2.20
2018-08-27T17:25:59.018Z,2.67
2018-08-27T17:28:32.002Z,2.10
2018-08-27T17:31:00.507Z,2.33
2018-08-27T17:33:29.122Z,2.67
2018-08-27T17:35:57.581Z,2.77
2018-08-27T17:38:27.401Z,2.30
2018-08-27T17:40:58.110Z,2.10
2018-08-27T17:43:26.663Z,2.30
2018-08-27T17:45:55.182Z,2.20
2018-08-27T17:48:23.732Z,2.43
2018-08-27T17:50:53.134Z,2.77
2018-08-27T17:53:21.713Z,2.67
2018-08-27T17:55:50.536Z,2.07
2018-08-27T17:58:19.144Z,2.30
2018-08-27T18:00:47.610Z,2.03
2018-08-27T18:03:17.423Z,2.45
2018-08-27T18:05:46.893Z,2.40
2018-08-27T18:13:10.974Z,2.77
2018-08-27T18:15:39.442Z,2.70
2018-08-27T18:18:07.917Z,2.70
2018-08-27T18:20:38.063Z,2.60
2018-08-27T18:23:06.641Z,2.80
2018-08-27T18:25:36.039Z,3.57
2018-08-27T18:28:04.926Z,4.00
2018-08-27T18:30:33.504Z,4.55
2018-08-27T18:33:02.229Z,3.90
2018-08-27T18:35:30.830Z,3.20
2018-08-27T18:37:59.500Z,4.17
2018-08-27T18:40:28.501Z,6.50
2018-08-27T18:42:57.662Z,6.20
2018-08-27T18:45:26.270Z,5.00
2018-08-27T18:47:54.679Z,4.60
2018-08-27T18:50:23.222Z,2.73
2018-08-27T18:52:53.290Z,3.03
2018-08-27T18:55:21.821Z,3.10
2018-08-27T18:57:51.329Z,3.10
2018-08-27T19:00:20.612Z,2.85
2018-08-27T19:02:49.157Z,3.30
2018-08-27T19:05:17.742Z,4.40
2018-08-27T19:07:46.291Z,7.00
2018-08-27T19:15:16.435Z,3.80
2018-08-27T19:17:44.948Z,3.80
2018-08-27T19:20:13.534Z,4.50
2018-08-27T19:22:42.161Z,5.13
2018-08-27T19:25:10.687Z,4.90
2018-08-27T19:27:39.178Z,3.90
2018-08-27T19:30:07.740Z,4.63
2018-08-27T19:32:36.294Z,5.40
2018-08-27T19:35:04.960Z,4.90
2018-08-27T19:37:33.541Z,4.50
2018-08-27T19:40:02.082Z,4.50
2018-08-27T19:42:30.727Z,4.60
2018-08-27T19:44:59.837Z,4.90
2018-08-27T19:47:28.571Z,4.35
2018-08-27T19:49:57.046Z,4.70
2018-08-27T19:52:26.426Z,3.83
2018-08-27T19:54:56.131Z,3.37
2018-08-27T19:57:24.661Z,4.00
2018-08-27T19:59:53.197Z,3.50
2018-08-27T20:02:24.802Z,4.10
2018-08-27T20:04:53.629Z,4.20
2018-08-27T20:07:22.342Z,4.10
2018-08-27T20:09:50.826Z,4.00
2018-08-27T20:12:19.473Z,3.77
2018-08-27T20:14:48.025Z,4.60
2018-08-27T20:17:17.497Z,4.27
2018-08-27T20:19:45.997Z,20.10
2018-08-27T20:27:14.022Z,4.13
2018-08-27T20:29:42.651Z,3.75
2018-08-27T20:32:11.285Z,3.43
2018-08-27T20:34:39.930Z,3.63
2018-08-27T20:37:08.446Z,3.98
2018-08-27T20:39:37.733Z,4.30
2018-08-27T20:42:06.691Z,3.73
2018-08-27T20:44:35.216Z,3.90
2018-08-27T20:47:03.808Z,2.90
2018-08-27T20:49:32.441Z,3.20
2018-08-27T20:52:00.956Z,3.50
2018-08-27T20:54:29.503Z,3.30
2018-08-27T20:56:58.590Z,3.10
2018-08-27T20:59:26.982Z,3.20
2018-08-27T21:01:56.613Z,4.43
2018-08-27T21:04:25.251Z,3.17
2018-08-27T21:06:53.826Z,3.53
2018-08-27T21:09:22.350Z,3.00
2018-08-27T21:11:51.983Z,3.47
2018-08-27T21:14:43.214Z,3.17
2018-08-27T21:17:11.707Z,2.80
2018-08-27T21:19:40.519Z,3.10
2018-08-27T21:22:09.017Z,2.83
2018-08-27T21:24:37.637Z,2.70
2018-08-27T21:27:06.110Z,2.97
2018-08-27T21:29:34.599Z,2.90
2018-08-27T21:32:03.162Z,3.57
2018-08-27T21:34:31.625Z,2.97
2018-08-27T21:37:00.161Z,2.83
2018-08-27T21:39:28.650Z,3.20
2018-08-27T21:41:57.112Z,2.80
2018-08-27T21:44:25.600Z,3.10
2018-08-27T21:46:54.142Z,3.50
2018-08-27T21:49:22.618Z,3.03
2018-08-27T21:51:51.096Z,3.27
2018-08-27T21:54:20.022Z,3.80
2018-08-27T21:56:48.519Z,3.30
2018-08-27T21:59:18.603Z,3.37
2018-08-27T22:01:48.325Z,3.50
2018-08-27T22:04:17.345Z,3.57
2018-08-27T22:06:45.861Z,3.13
2018-08-27T22:14:14.830Z,3.77
2018-08-27T22:16:43.801Z,3.60
2018-08-27T22:19:12.342Z,3.57
2018-08-27T22:21:40.837Z,3.17
2018-08-27T22:24:09.412Z,3.33
2018-08-27T22:26:37.866Z,4.07
2018-08-27T22:29:06.876Z,3.37
2018-08-27T22:31:35.453Z,3.03
2018-08-27T22:34:03.907Z,3.20
2018-08-27T22:36:32.799Z,3.23
2018-08-27T22:39:01.266Z,2.70
2018-08-27T22:41:29.710Z,3.03
2018-08-27T22:43:58.190Z,2.93
2018-08-27T22:46:26.633Z,3.03
2018-08-27T22:48:55.097Z,2.97
2018-08-27T22:51:23.614Z,2.97
2018-08-27T22:53:52.920Z,3.33
2018-08-27T22:56:21.474Z,2.96
2018-08-27T22:58:50.539Z,3.10
2018-08-27T23:01:19.614Z,2.40
2018-08-27T23:03:53.342Z,3.00
2018-08-27T23:06:29.428Z,2.60
2018-08-27T23:08:57.934Z,3.27
2018-08-27T23:11:26.390Z,3.25
2018-08-27T23:13:54.854Z,2.90
2018-08-27T23:16:29.227Z,3.17
2018-08-27T23:18:58.298Z,3.33
2018-08-27T23:21:26.794Z,2.90
2018-08-27T23:23:55.278Z,3.10
2018-08-27T23:26:24.574Z,2.93
2018-08-27T23:28:53.321Z,3.50
2018-08-27T23:31:21.855Z,3.33
2018-08-27T23:33:50.318Z,3.40
2018-08-27T23:36:18.943Z,2.90
2018-08-27T23:38:47.751Z,2.90
2018-08-27T23:46:11.277Z,2.83
2018-08-27T23:48:39.733Z,3.07
2018-08-27T23:51:08.241Z,3.27
2018-08-27T23:53:36.761Z,3.20
2018-08-27T23:56:05.255Z,3.30
2018-08-27T23:58:33.701Z,3.15
